Time;durP1;ratioP1;P1;durP2;ratioP2;P2;SDS_P1;SDS_P2;PMS_P1;PMS_P2;Temp;Humidity;BMP_temperature;BMP_pressure;BME280_temperature;BME280_humidity;BME280_pressure;Samples;Min_cycle;Max_cycle;Signal;HPM_P1;HPM_P2
2023/09/07 00:00:15;;;;;;;8.43;6.22;;;14.40;99.90;;;14.51;100.00;101089.94;5083140;28;20040;-77
2023/09/07 00:02:41;;;;;;;7.20;5.35;;;14.30;99.90;;;14.41;100.00;101096.00;5095369;28;20480;-77
2023/09/07 00:05:08;;;;;;;8.45;6.60;;;14.30;99.90;;;14.43;100.00;101123.19;5093686;28;20036;-77
2023/09/07 00:07:35;;;;;;;12.48;6.65;;;14.20;99.90;;;14.39;100.00;101112.69;5098436;28;20042;-77
2023/09/07 00:10:01;;;;;;;10.07;6.50;;;14.10;99.90;;;14.33;100.00;101112.78;5104709;28;20050;-77
2023/09/07 00:12:27;;;;;;;9.75;6.72;;;14.00;99.90;;;14.23;100.00;101113.31;5082598;28;20044;-77
2023/09/07 00:14:54;;;;;;;8.57;7.00;;;14.00;99.90;;;14.23;100.00;101135.28;5075633;28;20036;-77
2023/09/07 00:17:21;;;;;;;9.82;6.78;;;13.90;99.90;;;14.18;100.00;101130.47;5104415;28;20119;-77
2023/09/07 00:19:50;;;;;;;9.50;6.82;;;13.80;99.90;;;14.30;100.00;101127.78;5081480;28;21164;-77
2023/09/07 00:22:17;;;;;;;11.55;7.30;;;13.80;99.90;;;14.29;100.00;101117.03;5097577;28;20040;-76
2023/09/07 00:24:44;;;;;;;11.75;8.23;;;13.80;99.90;;;14.28;100.00;101120.84;5097341;28;20111;-77
2023/09/07 00:27:11;;;;;;;11.43;8.10;;;13.80;99.90;;;14.28;100.00;101118.94;5093334;28;20097;-76
2023/09/07 00:29:40;;;;;;;12.48;8.18;;;13.80;99.90;;;14.27;100.00;101109.03;5098145;28;20356;-76
2023/09/07 00:32:06;;;;;;;10.55;7.85;;;13.80;99.90;;;14.26;100.00;101101.03;5074690;28;20040;-76
2023/09/07 00:34:31;;;;;;;9.52;7.63;;;13.80;99.90;;;14.21;100.00;101099.00;5099883;28;20445;-76
2023/09/07 00:36:57;;;;;;;11.13;8.48;;;13.80;99.90;;;14.16;100.00;101079.63;5075523;28;20391;-76
2023/09/07 00:39:23;;;;;;;12.32;8.05;;;13.80;99.90;;;14.16;100.00;101063.16;5098284;28;20475;-76
2023/09/07 00:41:49;;;;;;;12.63;8.90;;;13.80;99.90;;;14.10;100.00;101035.59;5096784;28;20039;-76
2023/09/07 00:44:15;;;;;;;12.48;8.13;;;13.80;99.90;;;14.16;100.00;101036.56;5074956;28;20043;-76
2023/09/07 00:46:44;;;;;;;10.75;8.07;;;13.80;99.90;;;14.20;100.00;101032.28;5075030;28;20043;-76
2023/09/07 00:49:11;;;;;;;12.38;8.65;;;13.80;99.90;;;14.18;100.00;101023.47;5074583;28;20036;-76
2023/09/07 00:51:38;;;;;;;11.27;7.93;;;13.80;99.90;;;14.09;100.00;101014.69;5074794;28;20031;-76
2023/09/07 00:54:04;;;;;;;10.13;8.07;;;13.80;99.90;;;14.05;100.00;101016.25;5074905;28;20119;-76
2023/09/07 00:56:30;;;;;;;9.90;7.72;;;13.70;99.90;;;14.00;100.00;101004.28;5097709;28;20054;-76
2023/09/07 00:58:58;;;;;;;13.13;9.30;;;13.70;99.90;;;13.91;100.00;100982.66;5058210;28;20110;-76
2023/09/07 01:01:26;;;;;;;12.80;8.63;;;13.70;99.90;;;14.02;100.00;100993.91;5102854;28;20111;-76
2023/09/07 01:03:52;;;;;;;11.43;8.80;;;13.70;99.90;;;13.96;100.00;100976.50;5078321;28;20081;-77
2023/09/07 01:06:30;;;;;;;11.60;8.27;;;13.70;99.90;;;14.01;100.00;100975.78;5080341;28;20131;-76
2023/09/07 01:09:07;;;;;;;12.02;8.80;;;13.70;99.90;;;13.99;100.00;100978.78;5092273;28;20092;-76
2023/09/07 01:11:37;;;;;;;12.73;8.38;;;13.60;99.90;;;13.93;100.00;100976.97;5096556;28;20038;-76
2023/09/07 01:14:04;;;;;;;12.32;8.68;;;13.60;99.90;;;13.94;100.00;100970.41;5096302;28;20417;-77
2023/09/07 01:16:33;;;;;;;13.65;8.75;;;13.60;99.90;;;13.88;100.00;100960.34;5097337;28;20119;-76
2023/09/07 01:19:01;;;;;;;11.85;9.27;;;13.60;99.90;;;13.86;100.00;100963.34;5100939;28;20594;-77
2023/09/07 01:21:37;;;;;;;15.65;9.88;;;13.60;99.90;;;13.77;100.00;100946.34;5084242;28;20127;-77
2023/09/07 01:24:12;;;;;;;11.40;8.40;;;13.50;99.90;;;13.75;100.00;100944.91;5092061;28;20031;-77
2023/09/07 01:26:42;;;;;;;10.98;8.68;;;13.50;99.90;;;13.66;100.00;100934.25;5092083;28;20383;-77
2023/09/07 01:29:08;;;;;;;12.23;9.10;;;13.40;99.90;;;13.64;100.00;100939.13;5074415;28;20036;-76
2023/09/07 01:31:38;;;;;;;12.82;9.63;;;13.40;99.90;;;13.62;100.00;100935.78;5080493;28;20060;-77
2023/09/07 01:34:09;;;;;;;15.98;10.38;;;13.30;99.90;;;13.75;100.00;100934.78;5098526;28;20043;-77
2023/09/07 01:36:35;;;;;;;13.88;10.60;;;13.30;99.90;;;13.84;100.00;100950.91;5088369;28;20028;-77
2023/09/07 01:39:05;;;;;;;13.48;9.98;;;13.30;99.90;;;13.79;100.00;100957.94;5073592;28;20119;-76
2023/09/07 01:41:31;;;;;;;12.75;9.85;;;13.30;99.90;;;13.78;100.00;100963.63;5074178;28;20394;-77
2023/09/07 01:43:57;;;;;;;15.32;10.77;;;13.30;99.90;;;13.80;100.00;100962.34;5073627;28;20036;-77
2023/09/07 01:46:23;;;;;;;15.48;11.00;;;13.30;99.90;;;13.82;100.00;100970.34;5073395;28;20036;-76
2023/09/07 01:48:49;;;;;;;13.95;11.57;;;13.30;99.90;;;13.72;100.00;100968.16;5094771;28;20024;-77
2023/09/07 01:51:14;;;;;;;14.32;10.52;;;13.20;99.90;;;13.63;100.00;100973.09;5080199;28;20820;-77
2023/09/07 01:53:42;;;;;;;14.38;11.45;;;13.20;99.90;;;13.58;100.00;100985.81;5073029;28;20035;-77
2023/09/07 01:56:09;;;;;;;14.13;10.05;;;13.10;99.90;;;13.36;100.00;100967.91;5094389;28;20028;-77
2023/09/07 01:58:36;;;;;;;13.48;10.43;;;13.00;99.90;;;13.34;100.00;100985.63;5089768;28;20035;-77
2023/09/07 02:01:02;;;;;;;14.10;10.82;;;12.90;99.90;;;13.25;100.00;100987.81;5089173;28;20024;-76
2023/09/07 02:03:28;;;;;;;13.32;10.52;;;12.80;99.90;;;13.21;100.00;100986.59;5091097;28;20119;-76
2023/09/07 02:05:55;;;;;;;13.70;10.77;;;12.80;99.90;;;13.11;100.00;100987.09;5078511;28;20032;-76
2023/09/07 02:08:21;;;;;;;14.68;11.02;;;12.70;99.90;;;13.12;100.00;100988.78;5096866;28;20036;-76
2023/09/07 02:10:46;;;;;;;14.93;10.98;;;12.70;99.90;;;13.11;100.00;100984.38;5079617;28;20045;-76
2023/09/07 02:13:13;;;;;;;14.68;11.10;;;12.70;99.90;;;13.01;100.00;100975.84;5095443;28;20055;-76
2023/09/07 02:15:40;;;;;;;15.15;10.73;;;12.60;99.90;;;13.07;100.00;100963.97;5072943;28;20472;-76
2023/09/07 02:18:06;;;;;;;14.23;10.85;;;12.60;99.90;;;13.00;100.00;100957.72;5076695;28;20151;-75
2023/09/07 02:20:33;;;;;;;15.45;10.70;;;12.50;99.90;;;13.14;100.00;100964.75;5091678;28;20143;-76
2023/09/07 02:22:59;;;;;;;14.88;11.02;;;12.60;99.90;;;13.41;100.00;100930.75;5077943;28;20541;-76
2023/09/07 02:25:25;;;;;;;18.42;11.45;;;12.90;99.90;;;13.56;100.00;100909.31;5094742;28;20386;-76
2023/09/07 02:27:51;;;;;;;16.15;11.98;;;13.20;99.90;;;13.59;100.00;100894.28;5098276;28;20032;-76
2023/09/07 02:30:17;;;;;;;17.75;12.43;;;13.30;99.90;;;13.64;100.00;100892.53;5095979;28;20089;-76
2023/09/07 02:32:43;;;;;;;18.50;12.43;;;13.30;99.90;;;13.75;100.00;100881.84;5090995;28;20046;-76
2023/09/07 02:35:09;;;;;;;15.57;11.60;;;13.30;99.90;;;13.83;100.00;100889.75;5056399;28;20080;-76
2023/09/07 02:37:36;;;;;;;;;;;13.40;99.90;;;13.76;100.00;100908.19;5086156;28;20412;-76
2023/09/07 02:40:09;;;;;;;13.23;11.70;;;13.30;99.90;;;13.68;100.00;100912.09;5073305;28;19969;-76
2023/09/07 02:42:35;;;;;;;14.93;11.48;;;13.20;99.90;;;13.62;100.00;100916.59;5073105;28;20085;-76
2023/09/07 02:45:01;;;;;;;17.38;12.45;;;13.10;99.90;;;13.61;100.00;100931.38;5097275;28;20039;-76
2023/09/07 02:47:27;;;;;;;16.33;12.85;;;13.00;99.90;;;13.56;100.00;100933.97;5076613;28;20066;-76
2023/09/07 02:49:53;;;;;;;17.10;12.75;;;13.00;99.90;;;13.49;100.00;100934.06;5086732;28;20039;-76
2023/09/07 02:52:19;;;;;;;16.85;13.43;;;13.00;99.90;;;13.50;100.00;100940.34;5095573;28;20172;-76
2023/09/07 02:54:45;;;;;;;17.75;12.10;;;13.00;99.90;;;13.41;100.00;100926.13;5072470;28;21854;-76
2023/09/07 02:57:12;;;;;;;16.05;12.15;;;12.90;99.90;;;13.34;100.00;100928.94;5056125;28;20078;-76
2023/09/07 02:59:38;;;;;;;20.25;14.05;;;12.90;99.90;;;13.29;100.00;100923.28;5059611;28;20020;-75
2023/09/07 03:02:04;;;;;;;17.30;13.75;;;12.80;99.90;;;13.32;100.00;100913.78;5079961;28;20112;-76
2023/09/07 03:04:30;;;;;;;19.67;14.23;;;12.90;99.90;;;13.31;100.00;100910.22;5081032;28;20062;-75
2023/09/07 03:06:56;;;;;;;18.50;13.75;;;12.90;99.90;;;13.23;100.00;100905.88;5101095;28;20101;-76
2023/09/07 03:09:22;;;;;;;17.08;13.27;;;12.80;99.90;;;13.21;100.00;100920.84;5076724;28;20035;-76
2023/09/07 03:11:47;;;;;;;16.20;12.38;;;12.70;99.90;;;13.14;100.00;100920.94;5099414;28;20031;-75
2023/09/07 03:14:13;;;;;;;16.25;11.60;;;12.60;99.90;;;13.02;100.00;100928.22;5074716;28;20494;-76
2023/09/07 03:16:39;;;;;;;17.73;11.90;;;12.60;99.90;;;12.94;100.00;100919.22;5083348;28;20478;-75
2023/09/07 03:19:05;;;;;;;16.80;12.43;;;12.50;99.90;;;12.83;100.00;100905.44;5089071;28;20028;-76
2023/09/07 03:21:32;;;;;;;16.92;12.40;;;12.50;99.90;;;12.89;100.00;100896.31;5077949;28;20024;-76
2023/09/07 03:23:58;;;;;;;15.77;11.98;;;12.50;99.90;;;12.86;100.00;100913.22;5084990;28;20039;-75
2023/09/07 03:26:24;;;;;;;18.67;12.45;;;12.40;99.90;;;12.74;100.00;100903.00;5096830;28;20031;-75
2023/09/07 03:28:51;;;;;;;16.58;12.30;;;12.40;99.90;;;12.72;100.00;100902.38;5098935;28;20066;-75
2023/09/07 03:31:16;;;;;;;16.63;12.73;;;12.30;99.90;;;12.65;100.00;100904.34;5090678;28;20032;-75
2023/09/07 03:33:42;;;;;;;16.92;11.93;;;12.20;99.90;;;12.59;100.00;100905.25;5058789;28;20514;-75
2023/09/07 03:36:09;;;;;;;18.30;13.32;;;12.20;99.90;;;12.55;100.00;100913.06;5100326;28;20035;-75
2023/09/07 03:38:35;;;;;;;14.35;12.20;;;12.10;99.90;;;12.57;100.00;100899.16;5063748;28;20140;-75
2023/09/07 03:41:01;;;;;;;19.58;13.88;;;12.10;99.90;;;12.63;100.00;100898.25;5076000;28;20116;-75
2023/09/07 03:43:27;;;;;;;18.58;13.63;;;12.10;99.90;;;12.62;100.00;100907.53;5079417;28;20110;-75
2023/09/07 03:45:53;;;;;;;18.70;13.82;;;12.10;99.90;;;12.57;100.00;100907.38;5080988;28;20104;-75
2023/09/07 03:48:19;;;;;;;20.35;14.68;;;12.10;99.90;;;12.53;100.00;100898.75;5104424;28;20395;-76
2023/09/07 03:50:45;;;;;;;21.63;15.35;;;12.10;99.90;;;12.61;100.00;100905.84;5094144;28;20020;-75
2023/09/07 03:53:10;;;;;;;20.38;14.60;;;12.10;99.90;;;12.61;100.00;100901.22;5094326;28;20032;-76
2023/09/07 03:55:44;;;;;;;21.02;15.90;;;12.20;99.90;;;12.71;100.00;100899.88;5090254;28;20031;-76
2023/09/07 03:58:12;;;;;;;22.60;15.60;;;12.20;99.90;;;12.72;100.00;100896.06;5075872;28;20028;-76
2023/09/07 04:00:40;;;;;;;23.70;16.38;;;12.20;99.90;;;12.71;100.00;100900.69;5089796;28;20040;-77
2023/09/07 04:03:08;;;;;;;19.88;15.32;;;12.20;99.90;;;12.75;100.00;100893.72;5099583;28;20032;-76
2023/09/07 04:05:34;;;;;;;22.88;16.10;;;12.20;99.90;;;12.72;100.00;100894.16;5078582;28;20050;-76
2023/09/07 04:08:01;;;;;;;23.67;15.65;;;12.20;99.90;;;12.75;100.00;100895.63;5099209;28;20116;-77
2023/09/07 04:10:27;;;;;;;23.40;16.00;;;12.20;99.90;;;12.75;100.00;100896.47;5079078;28;20040;-76
2023/09/07 04:12:52;;;;;;;21.45;15.90;;;12.20;99.90;;;12.72;100.00;100896.91;5093422;28;20039;-76
2023/09/07 04:15:18;;;;;;;19.73;15.00;;;12.10;99.90;;;12.66;100.00;100911.50;5093421;28;20514;-75
2023/09/07 04:17:45;;;;;;;21.15;15.63;;;12.10;99.90;;;12.63;100.00;100921.00;5074933;28;20460;-76
2023/09/07 04:20:13;;;;;;;21.00;15.05;;;12.10;99.90;;;12.58;100.00;100930.94;5077734;28;20062;-77
2023/09/07 04:22:43;;;;;;;21.70;15.00;;;12.10;99.90;;;12.50;100.00;100938.38;5100226;28;20118;-76
2023/09/07 04:25:09;;;;;;;18.42;14.48;;;11.90;99.90;;;12.35;100.00;100935.09;5086127;28;20161;-76
2023/09/07 04:27:34;;;;;;;19.17;14.80;;;11.80;99.90;;;12.26;100.00;100947.38;5086370;28;20024;-76
2023/09/07 04:30:00;;;;;;;20.77;14.50;;;11.70;99.90;;;12.23;100.00;100960.44;5107571;28;20027;-76
2023/09/07 04:32:27;;;;;;;21.63;14.48;;;11.60;99.90;;;12.18;100.00;100962.97;5078359;28;20032;-76
2023/09/07 04:34:55;;;;;;;19.13;14.45;;;11.60;99.90;;;12.09;100.00;100961.56;5087882;28;20051;-77
2023/09/07 04:37:22;;;;;;;19.05;14.20;;;11.60;99.90;;;12.11;100.00;100959.47;5073053;28;20028;-75
2023/09/07 04:39:53;;;;;;;21.55;14.70;;;11.60;99.90;;;12.13;100.00;100957.34;5071564;28;20025;-76
2023/09/07 04:42:20;;;;;;;19.75;14.70;;;11.60;99.90;;;12.17;100.00;100950.38;5076163;28;20491;-75
2023/09/07 04:44:49;;;;;;;20.77;13.70;;;11.60;99.90;;;12.22;100.00;100946.97;5085404;28;20032;-75
2023/09/07 04:47:15;;;;;;;20.88;15.55;;;11.60;99.90;;;12.25;100.00;100952.00;5075674;28;20516;-75
2023/09/07 04:49:42;;;;;;;23.52;15.75;;;11.70;99.90;;;12.30;100.00;100948.63;5082276;28;20033;-78
2023/09/07 04:52:09;;;;;;;20.77;15.70;;;11.70;99.90;;;12.39;100.00;100947.28;5079279;28;20031;-79
2023/09/07 04:54:35;;;;;;;21.60;16.85;;;11.80;99.90;;;12.44;100.00;100933.75;5077344;28;20119;-78
2023/09/07 04:57:00;;;;;;;24.52;16.58;;;11.90;99.90;;;12.54;100.00;100911.38;5075940;28;20119;-78
2023/09/07 04:59:26;;;;;;;22.40;16.20;;;12.00;99.90;;;12.67;100.00;100915.91;5077695;28;20040;-76
2023/09/07 05:01:52;;;;;;;21.92;16.30;;;12.10;99.90;;;12.73;100.00;100900.47;5070553;28;20043;-82
2023/09/07 05:04:17;;;;;;;23.50;16.65;;;12.20;99.90;;;12.82;100.00;100898.31;5078761;28;20051;-78
2023/09/07 05:06:43;;;;;;;24.27;16.92;;;12.20;99.90;;;12.91;100.00;100903.25;5072170;28;20047;-80
2023/09/07 05:09:09;;;;;;;23.40;17.25;;;12.30;99.90;;;12.96;100.00;100899.81;5073020;28;20127;-80
2023/09/07 05:11:35;;;;;;;23.77;17.30;;;12.30;99.90;;;12.96;100.00;100891.59;5071543;28;20029;-80
2023/09/07 05:14:02;;;;;;;26.02;18.15;;;12.40;99.90;;;12.94;100.00;100878.16;5056468;28;20028;-79
2023/09/07 05:16:28;;;;;;;27.48;18.65;;;12.40;99.90;;;13.06;100.00;100891.94;5071463;28;20032;-80
2023/09/07 05:18:54;;;;;;;26.25;18.50;;;12.50;99.90;;;13.07;100.00;100876.31;5076552;28;20039;-80
2023/09/07 05:21:20;;;;;;;28.15;20.45;;;12.50;99.90;;;13.21;100.00;100882.50;5077807;28;20490;-79
2023/09/07 05:23:46;;;;;;;30.48;20.85;;;12.60;99.90;;;13.28;100.00;100871.47;5085657;28;20483;-80
2023/09/07 05:26:12;;;;;;;52.08;26.58;;;12.70;99.90;;;13.33;100.00;100861.50;5077249;28;20126;-79
2023/09/07 05:28:43;;;;;;;82.25;32.22;;;12.80;99.90;;;13.43;100.00;100860.13;5077921;28;20032;-79
2023/09/07 05:31:10;;;;;;;60.83;27.73;;;12.90;99.90;;;13.58;100.00;100852.34;5066039;28;20169;-78
2023/09/07 05:33:36;;;;;;;63.45;26.70;;;13.00;99.90;;;13.72;100.00;100847.50;5086204;28;20111;-78
2023/09/07 05:36:02;;;;;;;48.78;25.73;;;13.10;99.90;;;13.80;100.00;100851.84;5091344;28;20051;-78
2023/09/07 05:38:28;;;;;;;41.05;24.60;;;13.20;99.90;;;13.90;100.00;100846.59;5083757;28;20039;-77
2023/09/07 05:40:54;;;;;;;43.40;23.80;;;13.30;99.90;;;13.99;100.00;100840.78;5088505;28;20039;-78
2023/09/07 05:43:21;;;;;;;36.60;22.10;;;13.40;99.90;;;14.12;100.00;100835.09;5074332;28;20040;-79
2023/09/07 05:45:47;;;;;;;38.05;23.30;;;13.50;99.90;;;14.19;100.00;100819.34;5074891;28;20032;-79
2023/09/07 05:48:16;;;;;;;34.80;21.52;;;13.60;99.90;;;14.19;100.00;100802.88;5079550;28;20044;-79
2023/09/07 05:50:42;;;;;;;31.48;21.00;;;13.80;99.90;;;14.31;100.00;100807.53;5098592;28;20028;-80
2023/09/07 05:53:08;;;;;;;30.90;22.17;;;13.80;99.90;;;14.46;100.00;100820.81;5074223;28;20553;-79
2023/09/07 05:55:34;;;;;;;29.73;22.02;;;14.00;99.90;;;14.60;100.00;100835.13;5089801;28;20064;-79
2023/09/07 05:58:07;;;;;;;28.83;21.90;;;14.10;99.90;;;14.78;100.00;100839.69;5088901;28;20032;-82
2023/09/07 06:00:36;;;;;;;30.70;22.48;;;14.20;99.90;;;14.98;100.00;100865.91;5074705;28;20035;-83
2023/09/07 06:03:03;;;;;;;28.88;22.02;;;14.40;99.90;;;15.12;100.00;100885.72;5074893;28;20123;-79
2023/09/07 06:05:29;;;;;;;29.47;21.57;;;14.50;99.90;;;15.22;100.00;100921.69;5075129;28;20032;-79
2023/09/07 06:07:55;;;;;;;27.52;21.27;;;14.70;99.90;;;15.46;100.00;100938.13;5077684;28;20366;-80
2023/09/07 06:10:21;;;;;;;28.15;21.65;;;14.80;99.90;;;15.54;100.00;100962.50;5093202;28;20043;-79
2023/09/07 06:12:48;;;;;;;29.38;21.58;;;15.00;99.90;;;15.68;100.00;100985.06;5057703;28;20467;-79
2023/09/07 06:15:14;;;;;;;24.90;20.73;;;15.20;99.90;;;15.75;100.00;101018.75;5081698;28;20036;-83
2023/09/07 06:17:40;;;;;;;25.65;19.80;;;15.30;99.90;;;16.05;100.00;101075.56;5074771;28;20036;-79
2023/09/07 06:20:07;;;;;;;22.52;18.60;;;15.50;99.90;;;16.23;100.00;101121.34;5105162;28;20032;-80
2023/09/07 06:22:33;;;;;;;23.65;17.00;;;15.60;99.90;;;16.36;100.00;101156.00;5087338;28;20031;-82
2023/09/07 06:24:58;;;;;;;23.27;17.80;;;15.80;99.90;;;16.62;100.00;101173.06;5089866;28;20856;-82
2023/09/07 06:27:24;;;;;;;19.20;16.65;;;15.90;99.90;;;16.71;100.00;101211.22;5073951;28;20036;-83
2023/09/07 06:29:50;;;;;;;17.08;15.20;;;16.10;99.90;;;16.76;100.00;101227.84;5099155;28;20092;-86
2023/09/07 06:32:16;;;;;;;18.83;14.75;;;16.30;99.90;;;16.95;100.00;101253.31;5081856;28;20067;-85
2023/09/07 06:34:42;;;;;;;20.35;15.50;;;16.50;99.90;;;16.99;100.00;101257.31;5096681;28;20044;-85
2023/09/07 06:37:08;;;;;;;21.30;15.73;;;;;;;17.26;100.00;101295.31;5089743;28;20039;-86
2023/09/07 06:39:35;;;;;;;16.88;13.95;;;;;;;17.39;100.00;101310.72;5064327;28;20058;-84
2023/09/07 06:42:01;;;;;;;17.80;13.20;;;;;;;17.60;100.00;101339.50;5084096;28;20055;-84
2023/09/07 06:44:34;;;;;;;15.10;12.68;;;;;;;17.84;100.00;101339.38;5082878;28;20040;-86
2023/09/07 06:47:01;;;;;;;16.25;13.13;;;;;;;17.97;100.00;101344.56;5087811;28;20031;-80
2023/09/07 06:49:29;;;;;;;16.20;12.70;;;16.70;99.90;;;18.26;100.00;101346.47;5080894;28;20036;-80
2023/09/07 06:51:58;;;;;;;17.80;12.63;;;17.90;99.90;;;18.43;100.00;101334.56;5065973;28;20032;-80
2023/09/07 06:54:24;;;;;;;17.90;12.05;;;;;;;18.59;100.00;101339.22;5101698;28;20047;-83
2023/09/07 06:56:50;;;;;;;19.48;11.85;;;;;;;18.72;100.00;101351.84;5089604;28;20166;-80
2023/09/07 06:59:16;;;;;;;15.35;11.68;;;18.20;99.90;;;18.89;100.00;101370.31;5104784;28;20363;-79
2023/09/07 07:01:42;;;;;;;14.82;11.43;;;18.50;99.90;;;18.95;100.00;101370.09;5088201;28;20098;-79
2023/09/07 07:04:09;;;;;;;14.82;10.88;;;18.70;99.90;;;19.06;100.00;101386.88;5099809;28;20453;-78
2023/09/07 07:06:35;;;;;;;12.05;9.95;;;18.80;99.90;;;19.23;100.00;101393.22;5094188;28;20038;-79
2023/09/07 07:09:01;;;;;;;13.35;9.50;;;18.90;99.90;;;19.40;100.00;101412.50;5101427;28;20035;-79
2023/09/07 07:11:28;;;;;;;12.85;9.45;;;;;;;19.53;100.00;101422.34;5086896;28;20055;-80
2023/09/07 07:13:54;;;;;;;14.93;8.68;;;;;;;19.67;100.00;101422.78;5068832;28;20051;-79
2023/09/07 07:16:21;;;;;;;11.30;9.25;;;;;;;19.81;100.00;101438.97;5082050;28;20111;-78
2023/09/07 07:18:47;;;;;;;11.77;8.75;;;;;;;19.98;100.00;101447.19;5084250;28;20419;-78
2023/09/07 07:21:15;;;;;;;13.23;8.80;;;;;;;20.09;100.00;101448.97;5086652;28;20119;-78
2023/09/07 07:23:42;;;;;;;13.73;9.00;;;;;;;20.20;100.00;101455.47;5085419;28;20066;-78
2023/09/07 07:26:08;;;;;;;11.23;7.80;;;;;;;20.33;100.00;101456.97;5082368;28;20038;-78
2023/09/07 07:28:35;;;;;;;12.50;8.77;;;;;;;20.39;100.00;101453.13;5079732;28;20942;-80
2023/09/07 07:31:10;;;;;;;10.18;8.02;;;19.10;99.90;;;20.66;100.00;101452.25;5095005;28;20125;-80
2023/09/07 07:33:38;;;;;;;12.52;8.50;;;;;;;20.72;100.00;101450.34;5083029;28;20058;-81
2023/09/07 07:36:06;;;;;;;12.25;8.13;;;;;;;20.89;100.00;101454.91;5085706;28;20032;-80
2023/09/07 07:38:32;;;;;;;11.02;7.88;;;;;;;20.92;100.00;101459.91;5068161;28;20074;-79
2023/09/07 07:40:59;;;;;;;13.85;8.07;;;;;;;20.95;100.00;101464.94;5084208;28;20032;-81
2023/09/07 07:43:26;;;;;;;11.65;8.27;;;;;;;21.01;100.00;101469.44;5107534;28;20097;-80
2023/09/07 07:45:54;;;;;;;12.95;8.05;;;;;;;21.09;100.00;101470.88;5086358;28;20080;-80
2023/09/07 07:48:22;;;;;;;12.77;7.28;;;;;;;21.21;100.00;101477.03;5080389;28;20047;-80
2023/09/07 07:50:48;;;;;;;11.55;7.30;;;;;;;21.37;100.00;101482.69;5086115;28;20035;-81
2023/09/07 07:53:16;;;;;;;12.48;7.05;;;20.40;99.90;;;21.52;100.00;101484.69;5058316;28;20763;-79
2023/09/07 07:55:43;;;;;;;10.75;7.22;;;;;;;21.69;100.00;101479.78;5080000;28;20039;-80
2023/09/07 07:58:13;;;;;;;9.73;7.45;;;;;;;21.79;100.00;101483.72;5081081;28;20424;-81
2023/09/07 08:00:41;;;;;;;11.27;6.82;;;;;;;21.97;100.00;101483.19;5088067;28;20640;-80
2023/09/07 08:03:08;;;;;;;9.35;6.50;;;;;;;22.11;100.00;101491.00;5080211;28;20042;-81
2023/09/07 08:05:39;;;;;;;9.68;7.10;;;;;;;22.21;100.00;101488.25;5087105;28;20028;-81
2023/09/07 08:08:05;;;;;;;9.93;6.55;;;;;;;22.44;100.00;101483.25;5101944;28;20038;-80
2023/09/07 08:10:40;;;;;;;10.35;6.47;;;;;;;22.61;100.00;101488.56;5088844;28;20031;-79
2023/09/07 08:13:07;;;;;;;12.02;6.88;;;;;;;22.96;100.00;101488.84;5089814;28;20040;-81
2023/09/07 08:15:34;;;;;;;11.57;6.63;;;;;;;23.10;100.00;101487.16;5087580;28;20023;-80
2023/09/07 08:18:01;;;;;;;9.68;6.57;;;;;;;23.30;100.00;101479.88;5082340;28;20031;-81
2023/09/07 08:20:29;;;;;;;10.60;6.30;;;;;;;23.38;100.00;101479.31;5099390;28;20092;-80
2023/09/07 08:22:56;;;;;;;11.25;6.15;;;;;;;23.42;100.00;101476.78;5083102;28;20031;-80
2023/09/07 08:25:23;;;;;;;10.25;6.57;;;;;;;23.51;100.00;101477.03;5084273;28;20040;-82
2023/09/07 08:28:28;;;;;;;7.97;6.00;;;;;;;23.70;100.00;101475.28;5450720;23;20058;-81
2023/09/07 08:30:56;;;;;;;9.23;6.05;;;;;;;23.83;100.00;101481.31;5005743;28;20038;-84
2023/09/07 08:33:28;;;;;;;10.73;6.78;;;;;;;23.80;100.00;101484.69;5003607;28;20096;-85
2023/09/07 08:35:56;;;;;;;10.68;5.93;;;;;;;23.90;100.00;101484.66;5006745;28;20500;-82
2023/09/07 08:38:25;;;;;;;11.50;5.88;;;;;;;23.94;100.00;101491.31;5006093;28;20398;-84
2023/09/07 08:40:56;;;;;;;10.15;5.70;;;;;;;24.12;100.00;101489.81;4999350;28;20173;-88
2023/09/07 08:43:23;;;;;;;9.82;6.15;;;;;;;24.33;100.00;101491.63;5009045;28;20049;-80
2023/09/07 08:45:59;;;;;;;13.40;5.90;;;;;;;24.53;100.00;101493.41;4993961;28;20057;-82
2023/09/07 08:48:30;;;;;;;9.18;5.63;;;;;;;24.68;100.00;101495.28;4999375;28;20038;-86
2023/09/07 08:50:57;;;;;;;9.50;5.70;;;;;;;24.88;100.00;101501.81;4988434;28;20049;-84
2023/09/07 08:53:24;;;;;;;8.90;6.25;;;;;;;24.94;100.00;101495.88;4995053;28;20045;-83
2023/09/07 08:55:51;;;;;;;10.13;5.53;;;;;;;25.10;100.00;101499.34;4994572;28;20495;-85
2023/09/07 08:58:17;;;;;;;11.63;5.68;;;;;;;25.17;100.00;101500.94;4996908;28;20855;-84
2023/09/07 09:00:43;;;;;;;10.45;5.43;;;;;;;25.27;100.00;101503.66;5007422;28;20045;-81
2023/09/07 09:03:10;;;;;;;10.80;5.93;;;;;;;25.52;100.00;101496.13;5004123;28;20025;-82
2023/09/07 09:05:39;;;;;;;7.95;5.45;;;;;;;25.67;100.00;101498.72;5003527;28;20045;-81
2023/09/07 09:08:06;;;;;;;8.88;5.72;;;;;;;25.76;100.00;101492.47;5007023;28;20038;-82
2023/09/07 09:10:32;;;;;;;7.75;5.38;;;;;;;25.89;100.00;101494.53;4987278;28;20038;-83
2023/09/07 09:12:59;;;;;;;8.85;5.40;;;;;;;26.03;100.00;101499.38;4997254;28;20031;-82
2023/09/07 09:15:27;;;;;;;9.98;5.60;;;;;;;26.24;100.00;101491.53;5019834;28;20440;-82
2023/09/07 09:17:53;;;;;;;7.57;5.10;;;;;;;26.39;100.00;101498.84;4997498;28;20036;-83
2023/09/07 09:20:23;;;;;;;8.97;5.50;;;;;;;26.54;100.00;101501.41;4997203;28;20041;-83
2023/09/07 09:22:56;;;;;;;10.30;5.60;;;;;;;26.79;100.00;101496.50;5012667;28;20038;-86
2023/09/07 09:25:22;;;;;;;6.97;5.13;;;;;;;26.86;100.00;101512.91;5042199;28;20054;-84
2023/09/07 09:27:49;;;;;;;6.80;4.90;;;;;;;27.08;98.97;101494.59;5002600;28;20058;-88
2023/09/07 09:30:16;;;;;;;9.63;4.75;;;;;;;27.12;98.93;101499.28;5055087;28;20060;-84
2023/09/07 09:32:43;;;;;;;9.70;5.45;;;;;;;27.09;95.85;101490.66;5046735;28;20365;-87
2023/09/07 09:35:09;;;;;;;;;;;;;;;27.24;92.60;101495.97;5044260;28;20045;-86
2023/09/07 09:37:49;;;;;;;7.93;5.03;;;;;;;27.55;98.09;101500.13;5016622;28;20039;-84
2023/09/07 09:40:16;;;;;;;7.75;5.25;;;;;;;27.53;91.05;101485.63;5040745;28;20045;-84
2023/09/07 09:42:47;;;;;;;7.20;4.97;;;;;;;27.63;87.95;101487.38;5038588;28;20042;-84
2023/09/07 09:45:14;;;;;;;7.85;5.05;;;;;;;27.89;87.29;101484.00;5037753;28;20028;-85
2023/09/07 09:47:42;;;;;;;7.03;4.72;;;;;;;28.14;89.82;101489.03;5025434;28;20037;-86
2023/09/07 09:50:10;;;;;;;9.90;4.90;;;;;;;28.36;81.25;101480.97;5004518;28;20045;-84
2023/09/07 09:52:37;;;;;;;9.40;4.80;;;;;;;28.54;83.22;101485.56;5034794;28;20120;-82
2023/09/07 09:55:07;;;;;;;9.52;5.25;;;;;;;28.59;78.60;101479.00;5015707;28;20038;-84
2023/09/07 09:57:35;;;;;;;6.63;4.70;;;;;;;28.95;86.00;101480.88;5037856;28;20064;-85
2023/09/07 10:00:15;;;;;;;10.07;4.88;;;;;;;29.32;75.34;101477.88;5029096;28;20036;-82
2023/09/07 10:02:51;;;;;;;6.32;4.72;;;;;;;30.04;71.57;101482.56;5032862;28;20052;-82
2023/09/07 10:05:18;;;;;;;8.38;4.88;;;;;;;30.82;58.99;101475.19;5032587;28;20034;-83
2023/09/07 10:07:47;;;;;;;9.63;4.43;;;;;;;31.62;57.30;101484.94;5017975;28;20044;-83
2023/09/07 10:10:14;;;;;;;7.95;4.30;;;;;;;32.66;52.77;101473.16;5031724;28;20038;-82
2023/09/07 10:12:45;;;;;;;7.20;4.40;;;;;;;33.58;49.24;101477.84;5032745;28;20033;-91
2023/09/07 10:15:25;;;;;;;8.38;5.03;;;;;;;34.77;42.52;101463.53;5039515;28;20124;-90
2023/09/07 10:18:10;;;;;;;6.70;4.35;;;;;;;35.61;41.46;101474.09;5036645;28;20126;-85
2023/09/07 10:20:58;;;;;;;7.78;4.10;;;;;;;36.90;37.88;101460.88;5046335;28;20480;-82